• Join FlightAware (Why Join?)
  • Login
  • US Flag 
10:10PM EDT


 

Airport Tracker/Info


-or-


 

Live Flight TrackerFlight Track Log ✈ EJA829P ✈ 20-Jul-2013 ✈ KPSO - KJAC

Flight Track Log - Related Links

Times and Time Zones

All times are in EDT time to prevent confusion due to time zone crossing. See the EJA829P flight status page for this flight to view local times or setup timezone preferences in your user account.

Time Position Orientation Groundspeed Altitude Reporting Facility
EDT Latitude Longitude Course Direction KTS MPH feet Rate Location/Type
04:45PM 37.7633 -107.5135 324° Northwest  Level FlightAware Approximate
04:45PM 37.2617 -107.1142 322° Northwest 213 245 9,800  Level Denver Center
04:46PM 37.8414 -107.5887 332° Northwest  Level FlightAware Approximate
04:46PM 37.3158 -107.1692 321° Northwest 262 302 12,300  Level Denver Center
04:47PM 37.9184 -107.6658 326° Northwest  Level FlightAware Approximate
04:47PM 37.3708 -107.2208 323° Northwest 258 297 14,200  Level Denver Center
04:48PM 38.0019 -107.7373 326° Northwest  Level FlightAware Approximate
04:48PM 37.4508 -107.2856 327° Northwest 278 320 15,900  Level Denver Center
04:49PM 38.0819 -107.8152 322° Northwest  Level FlightAware Approximate
04:49PM 37.5322 -107.3397 332° Northwest 318 366 17,800  Level Denver Center
04:50PM 38.1611 -107.8944 322° Northwest  Level FlightAware Approximate
04:50PM 37.6189 -107.3992 331° Northwest 320 368 20,800  Level Denver Center
04:51PM 37.6906 -107.4683 323° Northwest 335 386 22,200 1,380 Climbing Denver Center
04:52PM 37.7789 -107.5517 323° Northwest 353 406 23,700 1,320 Climbing Denver Center
04:53PM 37.8433 -107.6094 325° Northwest 356 410 25,000 1,440 Climbing Denver Center
04:54PM 37.9464 -107.7092 323° Northwest 364 419 26,700 1,320 Climbing Denver Center
04:55PM 38.0272 -107.7844 324° Northwest 375 432 27,800 900 Climbing Denver Center
04:57PM 38.1289 -107.8300 341° North 381 438 28,800 960 Climbing Denver Center
04:58PM 38.2556 -107.8922 339° North 382 440 30,000 1,020 Climbing Denver Center
04:59PM 38.3528 -107.9394 339° North 390 449 31,000 960 Climbing Denver Center
05:00PM 38.4658 -107.9961 339° North 390 449 32,100 900 Climbing Denver Center
05:01PM 38.5647 -108.0294 345° North 384 442 33,000 960 Climbing Denver Center
05:02PM 38.6808 -108.0758 343° North 391 450 34,100 1,440 Climbing Denver Center
05:03PM 38.7711 -108.1219 338° Northwest 366 421 36,000 1,680 Climbing Denver Center
05:04PM 38.8731 -108.1733 339° North 352 405 37,600 960 Climbing Denver Center
05:05PM 38.9603 -108.2156 339° North 352 405 38,000 180 Climbing Denver Center
05:06PM 39.0383 -108.2514 340° North 369 425 38,000  Level Denver Center
05:07PM 39.1478 -108.3097 338° Northwest 380 437 38,000  Level Denver Center
05:08PM 39.2397 -108.3567 338° Northwest 378 435 38,000  Level Denver Center
05:09PM 39.3664 -108.4217 338° Northwest 363 418 38,000  Level Denver Center
05:10PM 39.4797 -108.4797 338° Northwest 389 448 38,000  Level Denver Center
05:11PM 39.5778 -108.5294 339° North 399 459 38,000  Level Denver Center
05:12PM 39.6919 -108.5864 339° North 406 467 38,000  Level Denver Center
05:13PM 39.7900 -108.6369 338° Northwest 403 464 38,000  Level Denver Center
05:14PM 39.9042 -108.6981 338° Northwest 404 465 38,000  Level Denver Center
05:15PM 40.0008 -108.7489 338° Northwest 394 453 38,000  Level Denver Center
05:16PM 40.1150 -108.8094 338° Northwest 397 457 38,000  Level Denver Center
05:17PM 40.2131 -108.8606 338° Northwest 397 457 38,000  Level Denver Center
05:18PM 40.2953 -108.9025 339° North 397 457 38,000  Level Salt Lake Center
05:19PM 40.4092 -108.9636 338° Northwest 395 455 38,000  Level Salt Lake Center
05:20PM 40.5072 -109.0150 338° Northwest 397 457 38,000  Level Salt Lake Center
05:21PM 40.6153 -109.0714 338° Northwest 395 455 38,000  Level Salt Lake Center
05:22PM 40.7125 -109.1244 338° Northwest 393 452 38,000  Level Salt Lake Center
05:23PM 40.8267 -109.1839 338° Northwest 393 452 38,000  Level Salt Lake Center
05:24PM 40.9244 -109.2361 338° Northwest 394 453 38,000  Level Salt Lake Center
05:25PM 41.0381 -109.2972 338° Northwest 393 452 38,000  Level Salt Lake Center
05:26PM 41.1342 -109.3503 337° Northwest 390 449 38,000  Level Salt Lake Center
05:27PM 41.2461 -109.4119 338° Northwest 386 444 38,000  Level Salt Lake Center
05:28PM 41.3431 -109.4633 338° Northwest 386 444 38,000  Level Salt Lake Center
05:29PM 41.4397 -109.5161 338° Northwest 388 447 38,000  Level Salt Lake Center
05:30PM 41.5517 -109.5775 338° Northwest 387 445 38,000  Level Salt Lake Center
05:32PM 41.6481 -109.6292 338° Northwest 387 445 38,000 -120 Level Salt Lake Center
05:33PM 41.7597 -109.6911 338° Northwest 388 447 37,800 -720 Descending Salt Lake Center
05:34PM 41.8553 -109.7436 338° Northwest 387 445 36,600 -1,440 Descending Salt Lake Center
05:35PM 41.9636 -109.8039 338° Northwest 379 436 34,900 -1,500 Descending Salt Lake Center
05:36PM 42.0536 -109.8531 338° Northwest 368 423 33,500 -1,440 Descending Salt Lake Center
05:37PM 42.1428 -109.9031 337° Northwest 364 419 32,000 -1,800 Descending Salt Lake Center
05:38PM 42.2542 -109.9656 337° Northwest 385 443 29,900 -1,860 Descending Salt Lake Center
05:39PM 42.3511 -110.0208 337° Northwest 393 452 28,200 -1,800 Descending Salt Lake Center
05:40PM 42.4658 -110.0842 338° Northwest 398 458 26,200 -1,860 Descending Salt Lake Center
05:41PM 42.5631 -110.1372 338° Northwest 395 455 24,400 -1,860 Descending Salt Lake Center
05:42PM 42.6689 -110.2008 336° Northwest 376 433 22,400 -1,860 Descending Salt Lake Center
05:43PM 42.7633 -110.2533 338° Northwest 360 414 20,600 -1,800 Descending Salt Lake Center
05:44PM 42.8553 -110.3050 338° Northwest 344 396 18,700 -1,500 Descending Salt Lake Center
05:45PM 42.9314 -110.3494 337° Northwest 315 362 17,600 -840 Descending Salt Lake Center
05:46PM 43.0081 -110.3942 337° Northwest 273 314 17,000 -300 Descending Salt Lake Center
05:47PM 43.0681 -110.4289 337° Northwest 249 287 17,000  Level Salt Lake Center
05:48PM 43.1450 -110.4572 345° North 257 296 17,000  Level Salt Lake Center
05:49PM 43.2175 -110.4794 347° North 275 316 17,000  Level Salt Lake Center
05:50PM 43.2911 -110.4964 350° North 262 302 17,000  Level Salt Lake Center
05:51PM 43.3606 -110.5200 346° North 258 297 17,000 -60 Level Salt Lake Center
05:52PM 43.4275 -110.5406 347° North 249 287 16,900 -360 Descending Salt Lake Center
05:53PM 43.4936 -110.5625 346° North 246 283 16,300 -1,260 Descending Salt Lake Center
05:54PM 43.5692 -110.5844 348° North 235 270 14,400 -1,200 Descending Salt Lake Center
05:55PM 43.6317 -110.6008 349° North 233 268 13,900 -900 Descending Salt Lake Center
05:56PM 43.6939 -110.5783 15° North 234 269 12,600 -1,620 Descending Salt Lake Center
05:57PM 43.7503 -110.5572 15° North 229 264 10,600 -1,800 Descending Salt Lake Center
05:58PM 43.7556 -110.6236 276° West 209 241 9,000 -1,020 Descending Salt Lake Center
05:59PM 43.7181 -110.6814 228° Southwest 184 212 8,600 -720 Descending Salt Lake Center
06:00PM 43.6772 -110.7033 201° Southwest 167 192 7,600 -840 Descending Salt Lake Center
06:01PM 43.6400 -110.7222 200° South 154 177 6,900 -600 Descending Salt Lake Center
06:02PM 43.6017 -110.7408 199° South 146 168 6,400 -540 Descending Salt Lake Center
06:04PM 43.6073 -110.7377 43° Northeast  Level Estimated